Val Marie, Canada
Current Conditions -  °F | °C
As of 12:00 PM on Friday 19 Dec 2014 (Local Time) from CYYN Reporting Station
Clear Clear  
Wind Chill: 24°   Ceiling: Unl
Heat Index: 30°   Visibility: 9mi
Dew Point: 28°   Wind: 6mph
Humidity: 93%   Direction: 180°S
Pressure: 29.83"   Gusts: NA
Location:  49.23°N, 107.73°W
Report Text: CYYN 191800Z AUTO 18005KT 9SM CLR M01/M02 A2983 RMK SLP141
Loading
Personal Weather Stations






























Interactive Weather Map New forecast layout! Learn more

10-Day Weather Forecast

Advertisements
Track Severe Weather on mobile